Time;durP1;ratioP1;P1;durP2;ratioP2;P2;SDS_P1;SDS_P2;PMS_P1;PMS_P2;Temp;Humidity;BMP_temperature;BMP_pressure;BME280_temperature;BME280_humidity;BME280_pressure;Samples;Min_cycle;Max_cycle;Signal;HPM_P1;HPM_P2
2024/01/28 00:01:57;;;;;;;6.05;3.58;;;;;;;;;;5072570;28;20032;-84
2024/01/28 00:04:23;;;;;;;6.53;3.47;;;;;;;;;;5073219;28;20579;-85
2024/01/28 00:06:50;;;;;;;6.00;3.58;;;;;;;;;;5073236;28;20029;-86
2024/01/28 00:09:16;;;;;;;6.20;3.33;;;;;;;;;;5072383;28;20029;-84
2024/01/28 00:11:43;;;;;;;8.70;3.22;;;;;;;;;;5072259;28;20024;-84
2024/01/28 00:14:09;;;;;;;7.40;3.25;;;;;;;;;;5071009;28;20111;-84
2024/01/28 00:16:35;;;;;;;5.90;3.70;;;;;;;;;;5072413;28;20024;-83
2024/01/28 00:19:01;;;;;;;8.70;3.72;;;;;;;;;;5072258;28;20103;-83
2024/01/28 00:21:28;;;;;;;6.53;3.28;;;;;;;;;;5072328;28;20429;-84
2024/01/28 00:23:55;;;;;;;9.48;3.70;;;;;;;;;;5072749;28;20021;-84
2024/01/28 00:26:21;;;;;;;6.15;3.47;;;;;;;;;;5055396;28;20399;-84
2024/01/28 00:28:47;;;;;;;6.65;3.33;;;;;;;;;;5072109;28;20518;-83
2024/01/28 00:31:13;;;;;;;4.90;3.42;;;;;;;;;;5072195;28;20056;-83
2024/01/28 00:33:39;;;;;;;4.97;3.70;;;;;;;;;;5072064;28;20024;-83
2024/01/28 00:36:05;;;;;;;8.18;4.07;;;;;;;;;;5072163;28;20028;-83
2024/01/28 00:38:32;;;;;;;10.35;3.75;;;;;;;;;;5071911;28;20029;-83
2024/01/28 00:40:59;;;;;;;7.03;3.63;;;;;;;;;;5072364;28;20044;-83
2024/01/28 00:43:25;;;;;;;7.75;3.80;;;;;;;;;;5072982;28;20033;-83
2024/01/28 00:45:52;;;;;;;9.27;3.75;;;;;;;;;;5072926;28;20378;-83
2024/01/28 00:48:18;;;;;;;6.65;3.55;;;;;;;;;;5072829;28;20511;-83
2024/01/28 00:50:44;;;;;;;7.47;3.75;;;;;;;;;;5073813;28;20095;-83
2024/01/28 00:53:11;;;;;;;6.63;3.50;;;;;;;;;;5089575;28;20009;-83
2024/01/28 00:55:37;;;;;;;5.70;3.63;;;;;;;;;;5094132;28;20056;-86
2024/01/28 00:58:03;;;;;;;6.38;3.35;;;;;;;;;;5092330;28;20016;-82
2024/01/28 01:00:29;;;;;;;7.40;3.55;;;;;;;;;;5083587;28;20035;-83
2024/01/28 01:02:55;;;;;;;8.48;3.53;;;;;;;;;;5072881;28;20081;-83
2024/01/28 01:05:21;;;;;;;7.45;3.80;;;;;;;;;;5070128;28;20378;-83
2024/01/28 01:07:47;;;;;;;7.32;4.00;;;;;;;;;;5071347;28;20397;-83
2024/01/28 01:10:14;;;;;;;5.70;3.55;;;;;;;;;;5070009;28;20058;-83
2024/01/28 01:12:40;;;;;;;6.47;3.63;;;;;;;;;;5071277;28;20107;-83
2024/01/28 01:15:07;;;;;;;5.70;3.25;;;;;;;;;;5071122;28;20063;-83
2024/01/28 01:17:33;;;;;;;9.38;3.80;;;;;;;;;;5070994;28;20020;-83
2024/01/28 01:20:00;;;;;;;5.32;3.40;;;;;;;;;;5071075;28;20082;-83
2024/01/28 01:22:27;;;;;;;7.20;3.92;;;;;;;;;;5071776;28;20027;-88
2024/01/28 01:24:53;;;;;;;7.75;3.90;;;;;;;;;;5071738;28;20036;-83
2024/01/28 01:27:19;;;;;;;9.07;4.07;;;;;;;;;;5070983;28;20070;-83
2024/01/28 01:29:45;;;;;;;5.93;3.40;;;;;;;;;;5070658;28;20492;-82
2024/01/28 01:32:11;;;;;;;9.23;3.90;;;;;;;;;;5070876;28;20032;-82
2024/01/28 01:34:37;;;;;;;7.60;4.10;;;;;;;;;;5070790;28;20556;-82
2024/01/28 01:37:03;;;;;;;8.10;3.97;;;;;;;;;;5070574;28;20111;-82
2024/01/28 01:39:30;;;;;;;7.80;3.90;;;;;;;;;;5070727;28;20492;-82
2024/01/28 01:41:56;;;;;;;7.60;4.03;;;;;;;;;;5071436;28;20028;-83
2024/01/28 01:44:22;;;;;;;9.00;4.20;;;;;;;;;;5070495;28;20037;-83
2024/01/28 01:46:48;;;;;;;9.10;4.05;;;;;;;;;;5070539;28;20096;-82
2024/01/28 01:49:15;;;;;;;6.90;3.80;;;;;;;;;;5070431;28;20024;-82
2024/01/28 01:51:41;;;;;;;5.47;3.65;;;;;;;;;;5070310;28;20025;-82
2024/01/28 01:54:07;;;;;;;5.97;3.35;;;;;;;;;;5070497;28;20528;-82
2024/01/28 01:56:36;;;;;;;9.55;3.88;;;;;;;;;;5069064;28;20116;-83
2024/01/28 01:59:06;;;;;;;5.40;3.53;;;;;;;;;;5070438;28;20111;-82
2024/01/28 02:01:32;;;;;;;5.20;3.85;;;;;;;;;;5070179;28;20023;-82
2024/01/28 02:03:58;;;;;;;8.45;4.00;;;;;;;;;;5070691;28;20037;-83
2024/01/28 02:06:24;;;;;;;7.72;3.72;;;;;;;;;;5070137;28;20017;-82
2024/01/28 02:08:50;;;;;;;6.57;4.00;;;;;;;;;;5070084;28;20393;-82
2024/01/28 02:11:18;;;;;;;8.05;3.67;;;;;;;;;;5069936;28;20024;-83
2024/01/28 02:13:44;;;;;;;8.63;4.00;;;;;;;;;;5070047;28;20070;-82
2024/01/28 02:16:10;;;;;;;6.75;3.90;;;;;;;;;;5069383;28;20028;-83
2024/01/28 02:18:36;;;;;;;7.35;3.95;;;;;;;;;;5069764;28;20389;-82
2024/01/28 02:21:02;;;;;;;7.88;4.03;;;;;;;;;;5068413;28;20021;-82
2024/01/28 02:23:28;;;;;;;9.45;3.95;;;;;;;;;;5070595;28;20036;-83
2024/01/28 02:25:54;;;;;;;7.85;4.05;;;;;;;;;;5068541;28;20366;-82
2024/01/28 02:28:21;;;;;;;6.88;4.22;;;;;;;;;;5069431;28;20036;-82
2024/01/28 02:30:47;;;;;;;6.32;3.72;;;;;;;;;;5069694;28;20027;-82
2024/01/28 02:33:13;;;;;;;10.68;4.25;;;;;;;;;;5069555;28;20025;-82
2024/01/28 02:35:39;;;;;;;6.22;3.88;;;;;;;;;;5069590;28;20108;-82
2024/01/28 02:38:05;;;;;;;4.05;3.33;;;;;;;;;;5069569;28;20025;-82
2024/01/28 02:40:31;;;;;;;7.55;3.78;;;;;;;;;;5070395;28;20384;-83
2024/01/28 02:42:58;;;;;;;8.20;3.80;;;;;;;;;;5070329;28;20028;-82
2024/01/28 02:45:24;;;;;;;6.75;3.67;;;;;;;;;;5069527;28;20032;-82
2024/01/28 02:47:51;;;;;;;8.35;4.07;;;;;;;;;;5069423;28;20114;-82
2024/01/28 02:50:17;;;;;;;6.97;3.63;;;;;;;;;;5069596;28;20037;-82
2024/01/28 02:52:43;;;;;;;6.57;3.38;;;;;;;;;;5069242;28;20020;-83
2024/01/28 02:55:09;;;;;;;7.53;4.10;;;;;;;;;;5069274;28;20127;-87
2024/01/28 02:57:35;;;;;;;6.63;3.85;;;;;;;;;;5069316;28;20024;-82
2024/01/28 03:00:03;;;;;;;6.18;3.80;;;;;;;;;;5070139;28;20468;-82
2024/01/28 03:02:29;;;;;;;9.47;4.37;;;;;;;;;;5070117;28;20025;-82
2024/01/28 03:04:56;;;;;;;7.63;3.85;;;;;;;;;;5069199;28;20396;-82
2024/01/28 03:07:22;;;;;;;8.35;3.88;;;;;;;;;;5069163;28;20020;-83
2024/01/28 03:09:48;;;;;;;8.63;4.10;;;;;;;;;;5069274;28;20029;-82
2024/01/28 03:12:14;;;;;;;8.50;3.78;;;;;;;;;;5068030;28;20096;-82
2024/01/28 03:14:40;;;;;;;7.63;4.30;;;;;;;;;;5069171;28;20028;-83
2024/01/28 03:17:06;;;;;;;10.82;3.90;;;;;;;;;;5069079;28;20092;-82
2024/01/28 03:19:32;;;;;;;6.72;3.78;;;;;;;;;;5068705;28;20115;-83
2024/01/28 03:21:58;;;;;;;6.90;3.90;;;;;;;;;;5067860;28;20028;-83
2024/01/28 03:24:24;;;;;;;6.63;3.75;;;;;;;;;;5069045;28;20493;-82
2024/01/28 03:26:50;;;;;;;6.05;3.63;;;;;;;;;;5069615;28;20024;-82
2024/01/28 03:29:15;;;;;;;5.43;3.53;;;;;;;;;;5071645;28;20123;-82
2024/01/28 03:31:42;;;;;;;8.18;3.63;;;;;;;;;;5073219;28;20021;-82
2024/01/28 03:34:08;;;;;;;9.15;3.70;;;;;;;;;;5073271;28;20017;-83
2024/01/28 03:36:34;;;;;;;7.13;3.75;;;;;;;;;;5074021;28;20024;-82
2024/01/28 03:39:00;;;;;;;7.90;3.75;;;;;;;;;;5073339;28;20318;-83
2024/01/28 03:41:26;;;;;;;5.90;3.88;;;;;;;;;;5073665;28;20571;-82
2024/01/28 03:43:52;;;;;;;7.55;4.05;;;;;;;;;;5073594;28;20028;-82
2024/01/28 03:46:18;;;;;;;7.32;3.85;;;;;;;;;;5073561;28;20471;-87
2024/01/28 03:48:44;;;;;;;7.10;3.92;;;;;;;;;;5073791;28;20025;-82
2024/01/28 03:51:10;;;;;;;7.53;3.85;;;;;;;;;;5076209;28;20021;-82
2024/01/28 03:53:36;;;;;;;6.88;3.63;;;;;;;;;;5094495;28;20072;-82
2024/01/28 03:56:02;;;;;;;8.35;3.88;;;;;;;;;;5092568;28;20420;-82
2024/01/28 03:58:28;;;;;;;8.68;3.80;;;;;;;;;;5094804;28;20036;-82
2024/01/28 04:00:54;;;;;;;7.65;4.00;;;;;;;;;;5074670;28;20029;-82
2024/01/28 04:03:20;;;;;;;7.78;4.40;;;;;;;;;;5072806;28;20032;-82
2024/01/28 04:05:46;;;;;;;5.22;3.70;;;;;;;;;;5072542;28;20099;-82
2024/01/28 04:08:12;;;;;;;10.50;4.13;;;;;;;;;;5072344;28;20020;-83
2024/01/28 04:10:38;;;;;;;6.53;3.40;;;;;;;;;;5072463;28;20107;-82
2024/01/28 04:13:05;;;;;;;4.70;3.47;;;;;;;;;;5072786;28;20028;-83
2024/01/28 04:15:32;;;;;;;7.13;3.63;;;;;;;;;;5072207;28;20440;-84
2024/01/28 04:17:58;;;;;;;6.43;3.72;;;;;;;;;;5072260;28;20033;-82
2024/01/28 04:20:24;;;;;;;8.18;4.05;;;;;;;;;;5072260;28;20036;-82
2024/01/28 04:22:50;;;;;;;7.13;4.15;;;;;;;;;;5070774;28;20020;-82
2024/01/28 04:25:18;;;;;;;6.93;4.10;;;;;;;;;;5071986;28;20396;-82
2024/01/28 04:27:44;;;;;;;4.80;3.53;;;;;;;;;;5072043;28;20023;-82
2024/01/28 04:30:10;;;;;;;9.35;4.50;;;;;;;;;;5071644;28;20032;-82
2024/01/28 04:32:36;;;;;;;7.78;3.95;;;;;;;;;;5072877;28;20104;-82
2024/01/28 04:35:02;;;;;;;5.90;3.80;;;;;;;;;;5071881;28;20064;-83
2024/01/28 04:37:29;;;;;;;5.45;3.75;;;;;;;;;;5070568;28;20020;-82
2024/01/28 04:39:56;;;;;;;5.32;3.70;;;;;;;;;;5071305;28;20576;-82
2024/01/28 04:42:22;;;;;;;6.25;3.83;;;;;;;;;;5071749;28;20106;-82
2024/01/28 04:44:49;;;;;;;6.57;3.85;;;;;;;;;;5071780;28;20174;-82
2024/01/28 04:47:15;;;;;;;6.25;3.75;;;;;;;;;;5071622;28;20029;-82
2024/01/28 04:49:41;;;;;;;6.30;3.80;;;;;;;;;;5071643;28;20108;-82
2024/01/28 04:52:07;;;;;;;6.53;3.85;;;;;;;;;;5072311;28;20129;-82
2024/01/28 04:54:33;;;;;;;7.22;3.67;;;;;;;;;;5071483;28;20496;-82
2024/01/28 04:57:02;;;;;;;6.82;4.00;;;;;;;;;;5071606;28;20024;-82
2024/01/28 04:59:28;;;;;;;8.15;3.75;;;;;;;;;;5071454;28;20423;-82
2024/01/28 05:01:55;;;;;;;7.22;3.90;;;;;;;;;;5071542;28;20100;-82
2024/01/28 05:04:21;;;;;;;8.43;4.18;;;;;;;;;;5071210;28;20033;-82
2024/01/28 05:06:47;;;;;;;5.88;3.88;;;;;;;;;;5070139;28;20021;-82
2024/01/28 05:09:13;;;;;;;8.90;4.45;;;;;;;;;;5071674;28;20108;-81
2024/01/28 05:11:39;;;;;;;5.68;4.13;;;;;;;;;;5072067;28;20103;-83
2024/01/28 05:14:05;;;;;;;9.00;4.15;;;;;;;;;;5071473;28;20476;-82
2024/01/28 05:16:31;;;;;;;10.70;4.22;;;;;;;;;;5071146;28;20029;-82
2024/01/28 05:18:57;;;;;;;5.82;3.78;;;;;;;;;;5071096;28;20028;-82
2024/01/28 05:21:23;;;;;;;9.30;3.97;;;;;;;;;;5070999;28;20175;-82
2024/01/28 05:23:53;;;;;;;7.03;3.92;;;;;;;;;;5070836;28;20020;-82
2024/01/28 05:26:20;;;;;;;6.45;3.83;;;;;;;;;;5070895;28;20025;-82
2024/01/28 05:28:46;;;;;;;6.38;3.88;;;;;;;;;;5070732;28;20078;-82
2024/01/28 05:31:12;;;;;;;6.20;3.60;;;;;;;;;;5070797;28;20021;-82
2024/01/28 05:33:39;;;;;;;5.75;3.97;;;;;;;;;;5071711;28;20025;-82
2024/01/28 05:36:14;;;;;;;7.82;3.97;;;;;;;;;;5070804;28;20028;-82
2024/01/28 05:38:41;;;;;;;7.53;4.00;;;;;;;;;;5071362;28;20048;-83
2024/01/28 05:41:08;;;;;;;8.23;4.40;;;;;;;;;;5071502;28;20024;-83
2024/01/28 05:43:33;;;;;;;7.60;4.00;;;;;;;;;;5070473;28;20108;-83
2024/01/28 05:46:00;;;;;;;6.35;3.90;;;;;;;;;;5070712;28;20067;-83
2024/01/28 05:48:26;;;;;;;5.40;3.63;;;;;;;;;;5070673;28;20031;-82
2024/01/28 05:50:52;;;;;;;10.05;4.28;;;;;;;;;;5069574;28;20025;-82
2024/01/28 05:53:18;;;;;;;8.38;3.83;;;;;;;;;;5070365;28;20032;-82
2024/01/28 05:55:44;;;;;;;8.00;4.07;;;;;;;;;;5070327;28;20029;-82
2024/01/28 05:58:10;;;;;;;12.43;4.25;;;;;;;;;;5071199;28;20051;-82
2024/01/28 06:00:36;;;;;;;4.80;3.60;;;;;;;;;;5069000;28;20025;-82
2024/01/28 06:03:04;;;;;;;5.22;3.78;;;;;;;;;;5070370;28;20274;-83
2024/01/28 06:05:30;;;;;;;8.43;4.03;;;;;;;;;;5070104;28;20120;-83
2024/01/28 06:07:56;;;;;;;7.53;3.88;;;;;;;;;;5070044;28;20060;-82
2024/01/28 06:10:22;;;;;;;8.75;4.22;;;;;;;;;;5070073;28;20025;-82
2024/01/28 06:12:48;;;;;;;7.38;4.43;;;;;;;;;;5068783;28;20032;-82
2024/01/28 06:15:14;;;;;;;7.88;4.00;;;;;;;;;;5070146;28;20020;-82
2024/01/28 06:17:40;;;;;;;5.80;4.10;;;;;;;;;;5070773;28;20107;-83
2024/01/28 06:20:07;;;;;;;7.68;4.50;;;;;;;;;;5069858;28;20485;-82
2024/01/28 06:22:33;;;;;;;8.43;4.50;;;;;;;;;;5069827;28;20060;-82
2024/01/28 06:24:59;;;;;;;5.47;4.00;;;;;;;;;;5069708;28;20542;-83
2024/01/28 06:27:25;;;;;;;6.10;4.10;;;;;;;;;;5069991;28;20029;-82
2024/01/28 06:29:52;;;;;;;7.07;4.50;;;;;;;;;;5069657;28;20032;-82
2024/01/28 06:32:18;;;;;;;6.82;4.30;;;;;;;;;;5069859;28;20059;-82
2024/01/28 06:34:44;;;;;;;6.78;4.32;;;;;;;;;;5070574;28;20067;-82
2024/01/28 06:37:10;;;;;;;9.07;4.70;;;;;;;;;;5070721;28;20020;-82
2024/01/28 06:39:36;;;;;;;8.50;4.70;;;;;;;;;;5070066;28;20146;-82
2024/01/28 06:42:02;;;;;;;7.72;4.32;;;;;;;;;;5069924;28;20366;-82
2024/01/28 06:44:28;;;;;;;7.53;5.03;;;;;;;;;;5069702;28;20029;-82
2024/01/28 06:46:54;;;;;;;7.18;4.68;;;;;;;;;;5070083;28;20023;-82
2024/01/28 06:49:20;;;;;;;6.65;4.63;;;;;;;;;;5070360;28;20032;-84
2024/01/28 06:51:46;;;;;;;8.60;4.28;;;;;;;;;;5076198;28;20028;-82
2024/01/28 06:54:12;;;;;;;8.07;4.22;;;;;;;;;;5090738;28;20040;-82
2024/01/28 06:56:38;;;;;;;7.63;4.15;;;;;;;;;;5086695;28;20046;-81
2024/01/28 06:59:04;;;;;;;7.00;4.55;;;;;;;;;;5090243;28;20028;-83
2024/01/28 07:01:30;;;;;;;4.95;4.03;;;;;;;;;;5069767;28;20103;-82
2024/01/28 07:03:56;;;;;;;8.10;4.75;;;;;;;;;;5069257;28;20024;-82
2024/01/28 07:06:22;;;;;;;8.98;4.70;;;;;;;;;;5069350;28;20028;-82
2024/01/28 07:08:48;;;;;;;8.30;4.85;;;;;;;;;;5069158;28;20020;-82
2024/01/28 07:11:14;;;;;;;6.55;4.47;;;;;;;;;;5069883;28;20093;-82
2024/01/28 07:13:40;;;;;;;9.05;4.63;;;;;;;;;;5069232;28;20105;-82
2024/01/28 07:16:07;;;;;;;10.02;4.72;;;;;;;;;;5069096;28;20031;-83
2024/01/28 07:18:33;;;;;;;7.75;4.72;;;;;;;;;;5069068;28;20025;-82
2024/01/28 07:20:59;;;;;;;7.60;4.72;;;;;;;;;;5069077;28;20031;-82
2024/01/28 07:23:25;;;;;;;8.30;4.82;;;;;;;;;;5068974;28;20027;-83
2024/01/28 07:25:51;;;;;;;7.95;5.00;;;;;;;;;;5067688;28;20036;-84
2024/01/28 07:28:17;;;;;;;14.13;4.70;;;;;;;;;;5069682;28;20025;-82
2024/01/28 07:30:43;;;;;;;6.18;4.60;;;;;;;;;;5069754;28;20028;-82
2024/01/28 07:33:10;;;;;;;8.38;4.80;;;;;;;;;;5068960;28;20028;-86
2024/01/28 07:35:36;;;;;;;7.35;4.60;;;;;;;;;;5068863;28;20103;-82
2024/01/28 07:38:03;;;;;;;6.38;4.50;;;;;;;;;;5068920;28;20046;-82
2024/01/28 07:40:29;;;;;;;6.88;4.55;;;;;;;;;;5068849;28;20460;-82
2024/01/28 07:42:56;;;;;;;7.53;5.35;;;;;;;;;;5068996;28;20024;-82
2024/01/28 07:45:22;;;;;;;8.00;4.68;;;;;;;;;;5068428;28;20037;-82
2024/01/28 07:47:48;;;;;;;7.88;4.75;;;;;;;;;;5069605;28;20017;-82
2024/01/28 07:50:15;;;;;;;7.13;4.50;;;;;;;;;;5069557;28;20036;-82
2024/01/28 07:52:43;;;;;;;5.93;4.45;;;;;;;;;;5068805;28;20028;-82
2024/01/28 07:55:09;;;;;;;5.57;4.13;;;;;;;;;;5067368;28;20673;-82
2024/01/28 07:57:35;;;;;;;10.35;4.28;;;;;;;;;;5068712;28;20017;-82
2024/01/28 08:00:01;;;;;;;9.63;4.18;;;;;;;;;;5068688;28;20412;-82
2024/01/28 08:02:27;;;;;;;6.38;4.22;;;;;;;;;;5068643;28;20553;-83
2024/01/28 08:04:54;;;;;;;8.30;4.97;;;;;;;;;;5068642;28;20033;-82
2024/01/28 08:07:20;;;;;;;8.68;4.82;;;;;;;;;;5068592;28;20464;-82
2024/01/28 08:09:46;;;;;;;7.47;4.85;;;;;;;;;;5069459;28;20035;-84
2024/01/28 08:12:12;;;;;;;10.63;4.80;;;;;;;;;;5070337;28;20033;-84
2024/01/28 08:14:38;;;;;;;7.60;4.75;;;;;;;;;;5071074;28;20476;-84
2024/01/28 08:17:04;;;;;;;8.95;4.82;;;;;;;;;;5073296;28;20025;-87
2024/01/28 08:19:31;;;;;;;9.50;4.72;;;;;;;;;;5072465;28;20025;-83
2024/01/28 08:21:58;;;;;;;9.18;4.50;;;;;;;;;;5071254;28;20039;-83
2024/01/28 08:24:24;;;;;;;8.25;4.75;;;;;;;;;;5072205;28;20492;-84
2024/01/28 08:26:50;;;;;;;7.78;4.57;;;;;;;;;;5072859;28;20020;-83
2024/01/28 08:29:16;;;;;;;8.00;4.72;;;;;;;;;;5073168;28;20519;-83
2024/01/28 08:31:42;;;;;;;7.13;5.25;;;5.90;99.90;;;;;;5072029;28;20095;-83
2024/01/28 08:34:08;;;;;;;7.30;4.47;;;5.70;99.90;;;;;;5070701;28;20024;-83
2024/01/28 08:36:33;;;;;;;8.63;4.80;;;5.70;99.90;;;;;;5071960;28;20037;-83
2024/01/28 08:38:59;;;;;;;8.25;4.93;;;5.70;99.90;;;;;;5070657;28;20020;-83
2024/01/28 08:41:24;;;;;;;6.90;4.60;;;5.70;99.90;;;;;;5071674;28;20047;-83
2024/01/28 08:43:50;;;;;;;7.82;4.57;;;5.80;99.90;;;;;;5072391;28;20017;-83
2024/01/28 08:46:16;;;;;;;7.00;4.75;;;5.80;99.90;;;;;;5072398;28;20123;-83
2024/01/28 08:48:42;;;;;;;7.63;4.35;;;5.80;99.90;;;;;;5071710;28;20576;-83
2024/01/28 08:51:08;;;;;;;8.93;4.78;;;5.70;99.90;;;;;;5071709;28;20024;-83
2024/01/28 08:53:34;;;;;;;7.47;4.50;;;5.80;99.90;;;;;;5070371;28;20485;-83
2024/01/28 08:55:59;;;;;;;8.38;4.68;;;5.90;99.90;;;;;;5070256;28;20111;-83
2024/01/28 08:58:26;;;;;;;8.25;4.70;;;6.00;99.90;;;;;;5071484;28;20020;-84
2024/01/28 09:00:52;;;;;;;9.15;5.07;;;6.00;99.90;;;;;;5072278;28;20043;-84
2024/01/28 09:03:17;;;;;;;7.80;4.10;;;6.10;99.90;;;;;;5072159;28;20107;-83
2024/01/28 09:05:43;;;;;;;6.70;4.40;;;6.10;99.90;;;;;;5071525;28;20085;-84
2024/01/28 09:08:08;;;;;;;8.30;4.75;;;6.20;99.90;;;;;;5070079;28;20495;-86
2024/01/28 09:10:34;;;;;;;8.90;5.10;;;6.20;99.90;;;;;;5071356;28;20024;-83
2024/01/28 09:13:00;;;;;;;8.65;4.97;;;7.30;99.90;;;;;;5071377;28;20166;-83
2024/01/28 09:15:25;;;;;;;8.48;4.90;;;6.30;99.90;;;;;;5071183;28;20024;-83
2024/01/28 09:17:51;;;;;;;8.88;4.78;;;6.30;99.90;;;;;;5072165;28;20028;-86
2024/01/28 09:20:16;;;;;;;6.15;4.60;;;6.40;99.90;;;;;;5071135;28;20025;-83
2024/01/28 09:22:42;;;;;;;9.05;5.30;;;;;;;;;;5071282;28;20021;-83
2024/01/28 09:25:08;;;;;;;6.93;4.80;;;6.40;99.90;;;;;;5069763;28;20484;-83
2024/01/28 09:27:34;;;;;;;6.65;4.78;;;6.40;99.90;;;;;;5071133;28;20024;-83
2024/01/28 09:29:59;;;;;;;6.47;4.50;;;5.60;99.90;;;;;;5070859;28;20040;-83
2024/01/28 09:32:26;;;;;;;9.00;4.95;;;;;;;;;;5071095;28;20020;-82
2024/01/28 09:34:52;;;;;;;7.03;4.22;;;;;;;;;;5072302;28;20039;-83
2024/01/28 09:37:18;;;;;;;12.65;4.93;;;;;;;;;;5071045;28;20020;-82
2024/01/28 09:39:44;;;;;;;7.03;4.85;;;;;;;;;;5071279;28;20261;-83
2024/01/28 09:42:31;;;;;;;7.40;4.90;;;;;;;;;;5070893;28;20062;-82
2024/01/28 09:44:59;;;;;;;7.95;4.60;;;;;;;;;;5030664;28;20479;-82
2024/01/28 09:47:25;;;;;;;8.13;4.90;;;;;;;;;;5070335;28;20060;-82
2024/01/28 09:49:52;;;;;;;9.10;4.97;;;;;;;;;;5070517;28;20028;-85
2024/01/28 09:52:17;;;;;;;10.38;5.13;;;;;;;;;;5075632;28;20028;-83
2024/01/28 09:54:47;;;;;;;8.80;4.93;;;;;;;;;;5084304;28;20027;-82
2024/01/28 09:57:14;;;;;;;8.77;5.13;;;;;;;;;;5084184;28;20028;-82
2024/01/28 09:59:40;;;;;;;7.20;4.53;;;;;;;;;;5086964;28;20051;-82
2024/01/28 10:02:07;;;;;;;7.95;4.32;;;;;;;;;;5070985;28;20028;-82
2024/01/28 10:04:34;;;;;;;7.03;4.32;;;;;;;;;;5070240;28;20036;-82
2024/01/28 10:07:01;;;;;;;7.03;4.75;;;;;;;;;;5070249;28;20025;-82
2024/01/28 10:09:28;;;;;;;6.78;4.43;;;;;;;;;;5070115;28;20103;-81
2024/01/28 10:11:54;;;;;;;8.38;4.90;;;;;;;;;;5071060;28;20017;-82
2024/01/28 10:14:20;;;;;;;6.57;4.88;;;;;;;;;;5070220;28;20025;-86
2024/01/28 10:16:47;;;;;;;7.70;4.85;;;;;;;;;;5069984;28;20469;-82
2024/01/28 10:19:13;;;;;;;8.07;5.05;;;;;;;;;;5069888;28;20031;-82
2024/01/28 10:21:39;;;;;;;7.28;4.35;;;;;;;;;;5069806;28;20021;-82
2024/01/28 10:24:05;;;;;;;5.53;4.20;;;;;;;;;;5069701;28;20039;-83
2024/01/28 10:26:32;;;;;;;6.30;4.78;;;;;;;;;;5069779;28;20035;-82
2024/01/28 10:28:58;;;;;;;6.70;4.38;;;;;;;;;;5069753;28;20086;-83
2024/01/28 10:31:24;;;;;;;7.43;4.65;;;;;;;;;;5070566;28;20028;-83
2024/01/28 10:33:50;;;;;;;8.55;4.75;;;;;;;;;;5069740;28;20034;-86
2024/01/28 10:36:19;;;;;;;5.70;4.38;;;;;;;;;;5069125;28;20099;-83
2024/01/28 10:38:46;;;;;;;9.13;4.78;;;;;;;;;;5068342;28;20031;-83
2024/01/28 10:41:17;;;;;;;10.13;4.70;;;;;;;;;;5069442;28;20024;-85
2024/01/28 10:43:46;;;;;;;9.38;4.72;;;;;;;;;;5069373;28;20092;-83
2024/01/28 10:46:16;;;;;;;9.02;4.85;;;;;;;;;;5069618;28;20056;-84
2024/01/28 10:48:44;;;;;;;9.80;4.78;;;;;;;;;;5068088;28;20028;-83
2024/01/28 10:51:11;;;;;;;7.80;4.38;;;;;;;;;;5069377;28;20024;-87
2024/01/28 10:53:38;;;;;;;5.90;4.47;;;;;;;;;;5069502;28;20025;-84
2024/01/28 10:56:04;;;;;;;8.30;4.38;;;;;;;;;;5068209;28;20032;-83
2024/01/28 10:58:30;;;;;;;7.60;4.20;;;;;;;;;;5068037;28;20028;-83
2024/01/28 11:00:56;;;;;;;9.98;4.55;;;;;;;;;;5068816;28;20086;-86
2024/01/28 11:03:23;;;;;;;6.32;4.45;;;;;;;;;;5069164;28;20457;-83
2024/01/28 11:05:49;;;;;;;8.50;4.20;;;;;;;;;;5069245;28;20546;-83
2024/01/28 11:08:15;;;;;;;6.82;4.53;;;;;;;;;;5069328;28;20025;-83
2024/01/28 11:10:41;;;;;;;8.32;4.78;;;;;;;;;;5069106;28;20030;-87
2024/01/28 11:13:07;;;;;;;6.20;4.25;;;;;;;;;;5069278;28;20028;-83
2024/01/28 11:15:33;;;;;;;6.55;4.47;;;;;;;;;;5069172;28;20019;-84
2024/01/28 11:18:01;;;;;;;5.50;4.03;;;;;;;;;;5069905;28;20051;-83
2024/01/28 11:20:27;;;;;;;6.45;4.00;;;;;;;;;;5069868;28;20082;-83
2024/01/28 11:22:53;;;;;;;7.72;4.40;;;;;;;;;;5069101;28;20025;-84
2024/01/28 11:25:24;;;;;;;5.40;4.25;;;;;;;;;;5068882;28;20033;-83
2024/01/28 11:27:50;;;;;;;8.73;4.95;;;;;;;;;;5068991;28;20743;-82
2024/01/28 11:30:21;;;;;;;6.80;4.15;;;;;;;;;;5068740;28;20032;-83
2024/01/28 11:32:47;;;;;;;8.38;4.82;;;;;;;;;;5067573;28;20051;-86
2024/01/28 11:35:13;;;;;;;6.57;4.80;;;;;;;;;;5068809;28;20431;-82
2024/01/28 11:37:58;;;;;;;7.13;4.63;;;;;;;;;;5069044;28;20361;-83
2024/01/28 11:40:29;;;;;;;7.30;4.80;;;;;;;;;;5068722;28;20036;-83
2024/01/28 11:42:56;;;;;;;7.95;4.60;;;;;;;;;;5068870;28;20035;-83
2024/01/28 11:45:22;;;;;;;7.32;4.47;;;;;;;;;;5067311;28;20056;-84
2024/01/28 11:47:48;;;;;;;7.97;4.72;;;;;;;;;;5068746;28;20089;-83
2024/01/28 11:50:15;;;;;;;8.45;4.88;;;;;;;;;;5072457;28;20036;-82
2024/01/28 11:52:42;;;;;;;7.80;4.80;;;;;;;;;;5072716;28;20017;-82
2024/01/28 11:55:11;;;;;;;11.35;5.00;;;;;;;;;;5072699;28;20028;-82
2024/01/28 11:57:37;;;;;;;8.40;5.00;;;;;;;;;;5072745;28;20024;-82
2024/01/28 12:00:07;;;;;;;6.45;4.55;;;;;;;;;;5071194;28;20109;-83
2024/01/28 12:02:34;;;;;;;6.07;4.57;;;;;;;;;;5072635;28;20485;-82
2024/01/28 12:05:00;;;;;;;14.02;9.00;;;;;;;;;;5073270;28;20040;-83
2024/01/28 12:07:26;;;;;;;19.50;13.57;;;;;;;;;;5071104;28;20016;-83
2024/01/28 12:09:53;;;;;;;9.32;6.35;;;;;;;;;;5072466;28;20479;-86
2024/01/28 12:12:19;;;;;;;6.15;4.55;;;;;;;;;;5072779;28;20048;-83
2024/01/28 12:14:45;;;;;;;7.38;4.53;;;;;;;;;;5072328;28;20067;-85
2024/01/28 12:17:11;;;;;;;6.75;4.82;;;;;;;;;;5072234;28;20028;-83
2024/01/28 12:19:41;;;;;;;8.05;4.53;;;;;;;;;;5072228;28;20111;-83
2024/01/28 12:22:10;;;;;;;6.90;4.15;;;;;;;;;;5072191;28;20434;-84
2024/01/28 12:24:36;;;;;;;5.63;4.50;;;;;;;;;;5072184;28;20044;-83
2024/01/28 12:27:04;;;;;;;6.20;4.78;;;;;;;;;;5073021;28;20044;-84
2024/01/28 12:29:31;;;;;;;7.43;4.55;;;;;;;;;;5072898;28;20044;-84
2024/01/28 12:31:57;;;;;;;8.40;5.60;;;;;;;;;;5072060;28;20048;-84
2024/01/28 12:34:26;;;;;;;9.15;5.18;;;;;;;;;;5072014;28;20024;-83
2024/01/28 12:36:52;;;;;;;10.20;5.07;;;;;;;;;;5072172;28;20029;-83
2024/01/28 12:39:18;;;;;;;7.25;4.68;;;;;;;;;;5072104;28;20071;-83
2024/01/28 12:41:44;;;;;;;8.10;5.20;;;;;;;;;;5072044;28;20433;-84
2024/01/28 12:44:10;;;;;;;8.50;5.05;;;;;;;;;;5072024;28;20093;-83
2024/01/28 12:46:36;;;;;;;6.07;4.63;;;;;;;;;;5072422;28;20024;-83
2024/01/28 12:49:02;;;;;;;8.57;5.28;;;;;;;;;;5073002;28;20115;-85
2024/01/28 12:51:28;;;;;;;9.73;5.00;;;;;;;;;;5072647;28;20104;-83
2024/01/28 12:53:54;;;;;;;8.82;4.95;;;;;;;;;;5084186;28;20161;-83
2024/01/28 12:56:20;;;;;;;11.25;4.80;;;;;;;;;;5085032;28;20028;-83
2024/01/28 12:58:47;;;;;;;7.03;4.32;;;;;;;;;;5071081;28;20032;-82
2024/01/28 13:01:13;;;;;;;8.18;4.55;;;;;;;;;;5076590;28;20097;-83
2024/01/28 13:03:39;;;;;;;6.95;4.78;;;;;;;;;;5071598;28;20024;-83
2024/01/28 13:06:05;;;;;;;6.53;4.55;;;;;;;;;;5072256;28;20451;-83
2024/01/28 13:08:31;;;;;;;7.38;4.43;;;;;;;;;;5072162;28;20025;-83
2024/01/28 13:11:00;;;;;;;6.75;4.55;;;;;;;;;;5071238;28;20035;-83
2024/01/28 13:13:27;;;;;;;6.15;4.28;;;;;;;;;;5071352;28;20341;-83
2024/01/28 13:15:53;;;;;;;6.15;4.18;;;;;;;;;;5071219;28;20021;-83
2024/01/28 13:18:19;;;;;;;7.60;4.13;;;;;;;;;;5071218;28;20055;-82
2024/01/28 13:20:45;;;;;;;6.72;4.55;;;;;;;;;;5071018;28;20024;-83
2024/01/28 13:23:11;;;;;;;6.80;4.50;;;;;;;;;;5070919;28;20389;-84
2024/01/28 13:25:37;;;;;;;6.53;4.35;;;;;;;;;;5071158;28;20032;-82
2024/01/28 13:28:03;;;;;;;9.13;4.63;;;;;;;;;;5071883;28;20122;-83
2024/01/28 13:30:29;;;;;;;9.95;4.40;;;;;;;;;;5070659;28;20377;-83
2024/01/28 13:32:55;;;;;;;6.28;4.20;;;;;;;;;;5070881;28;20086;-83
2024/01/28 13:35:21;;;;;;;6.75;4.13;;;;;;;;;;5070820;28;20029;-83
2024/01/28 13:37:47;;;;;;;5.55;3.90;;;;;;;;;;5070682;28;20025;-82
2024/01/28 13:40:13;;;;;;;7.72;4.65;;;;;;;;;;5070745;28;20028;-83
2024/01/28 13:42:39;;;;;;;7.68;4.70;;;;;;;;;;5070651;28;20070;-82
2024/01/28 13:45:11;;;;;;;5.75;4.32;;;;;;;;;;5071259;28;20036;-83
2024/01/28 13:47:37;;;;;;;5.60;4.28;;;;;;;;;;5071527;28;20036;-83
2024/01/28 13:50:05;;;;;;;7.53;4.45;;;;;;;;;;5071290;28;20029;-83
2024/01/28 13:52:31;;;;;;;5.15;4.35;;;;;;;;;;5070430;28;20017;-83
2024/01/28 13:54:57;;;;;;;6.78;4.75;;;;;;;;;;5070406;28;20029;-82
2024/01/28 13:57:23;;;;;;;6.32;4.47;;;;;;;;;;5070263;28;20376;-83
2024/01/28 13:59:49;;;;;;;8.48;4.82;;;;;;;;;;5069040;28;20442;-86
2024/01/28 14:02:15;;;;;;;5.75;4.25;;;;;;;;;;5070127;28;20103;-83
2024/01/28 14:04:41;;;;;;;5.78;4.30;;;;;;;;;;5070115;28;20040;-84
2024/01/28 14:07:08;;;;;;;7.70;4.10;;;;;;;;;;5071074;28;20032;-83
2024/01/28 14:09:34;;;;;;;5.90;4.00;;;;;;;;;;5068852;28;20081;-84
2024/01/28 14:12:00;;;;;;;7.07;4.15;;;;;;;;;;5069310;28;20025;-83
2024/01/28 14:14:26;;;;;;;5.47;3.97;;;;;;;;;;5070016;28;20020;-84
2024/01/28 14:16:52;;;;;;;8.55;4.45;;;;;;;;;;5068686;28;20031;-83
2024/01/28 14:19:17;;;;;;;6.85;4.20;;;;;;;;;;5068599;28;20031;-86
2024/01/28 14:21:44;;;;;;;5.57;4.18;;;;;;;;;;5069977;28;20024;-83
2024/01/28 14:24:10;;;;;;;6.55;3.83;;;;;;;;;;5069028;28;20036;-84
2024/01/28 14:26:36;;;;;;;10.77;4.00;;;;;;;;;;5069275;28;20027;-84
2024/01/28 14:29:02;;;;;;;6.97;4.30;;;;;;;;;;5068181;28;20040;-83